createdAt,value
2023-05-10T00:00:15.223Z,100505.97
2023-05-10T00:04:28.469Z,100502.22
2023-05-10T00:08:40.046Z,100505.75
2023-05-10T00:12:51.635Z,100490.91
2023-05-10T00:17:03.198Z,100496.06
2023-05-10T00:21:14.729Z,100498.50
2023-05-10T00:25:26.305Z,100492.03
2023-05-10T00:29:37.824Z,100499.59
2023-05-10T00:33:49.312Z,100495.00
2023-05-10T00:38:00.909Z,100489.84
2023-05-10T00:42:12.466Z,100478.72
2023-05-10T00:46:24.433Z,100489.28
2023-05-10T00:50:36.176Z,100480.09
2023-05-10T00:54:48.632Z,100491.97
2023-05-10T00:59:00.753Z,100477.06
2023-05-10T01:03:12.539Z,100479.44
2023-05-10T01:07:24.313Z,100480.25
2023-05-10T01:11:37.591Z,100487.06
2023-05-10T01:15:49.227Z,100481.66
2023-05-10T01:20:00.957Z,100480.84
2023-05-10T01:24:51.201Z,100491.78
2023-05-10T01:29:27.517Z,100490.69
2023-05-10T01:33:59.957Z,100486.63
2023-05-10T01:38:47.829Z,100494.75
2023-05-10T01:43:03.630Z,100494.16
2023-05-10T01:47:31.775Z,100491.66
2023-05-10T01:51:55.698Z,100494.38
2023-05-10T01:56:09.462Z,100485.72
2023-05-10T02:00:21.306Z,100486.78
2023-05-10T02:04:39.581Z,100488.44
2023-05-10T02:08:53.044Z,100496.00
2023-05-10T02:13:08.272Z,100489.78
2023-05-10T02:17:20.456Z,100497.91
2023-05-10T02:21:33.686Z,100494.38
2023-05-10T02:25:46.462Z,100495.72
2023-05-10T02:29:59.835Z,100500.56
2023-05-10T02:34:12.554Z,100509.50
2023-05-10T02:38:25.372Z,100514.34
2023-05-10T02:42:38.734Z,100491.22
2023-05-10T02:46:50.672Z,100511.31
2023-05-10T02:51:08.011Z,100515.66
2023-05-10T02:55:26.336Z,100512.66
2023-05-10T02:59:38.074Z,100519.44
2023-05-10T03:03:49.722Z,100524.84
2023-05-10T03:08:04.628Z,100519.44
2023-05-10T03:13:02.696Z,100526.22
2023-05-10T03:17:27.205Z,100521.06
2023-05-10T03:21:43.094Z,100529.44
2023-05-10T03:25:55.458Z,100529.44
2023-05-10T03:30:14.252Z,100533.72
2023-05-10T03:34:27.040Z,100534.75
2023-05-10T03:38:38.782Z,100539.28
2023-05-10T03:42:50.877Z,100542.16
2023-05-10T03:47:02.510Z,100528.28
2023-05-10T03:51:14.390Z,100544.50
2023-05-10T03:55:26.047Z,100546.13
2023-05-10T03:59:37.630Z,100548.75
2023-05-10T04:03:49.367Z,100565.22
2023-05-10T04:08:01.094Z,100564.41
2023-05-10T04:12:12.804Z,100563.81
2023-05-10T04:16:24.356Z,100565.47
2023-05-10T04:20:35.899Z,100563.50
2023-05-10T04:24:47.451Z,100558.63
2023-05-10T04:28:58.998Z,100562.16
2023-05-10T04:33:10.609Z,100567.56
2023-05-10T04:37:23.815Z,100573.19
2023-05-10T04:41:35.577Z,100568.91
2023-05-10T04:45:47.292Z,100564.53
2023-05-10T04:49:59.415Z,100561.59
2023-05-10T04:54:11.300Z,100572.13
2023-05-10T04:58:22.889Z,100575.13
2023-05-10T05:02:34.526Z,100577.34
2023-05-10T05:06:46.075Z,100582.75
2023-05-10T05:10:57.674Z,100571.94
2023-05-10T05:15:10.673Z,100580.09
2023-05-10T05:19:22.449Z,100583.38
2023-05-10T05:23:34.005Z,100593.72
2023-05-10T05:27:45.576Z,100597.03
2023-05-10T05:31:57.072Z,100597.03
2023-05-10T05:36:09.430Z,100595.47
2023-05-10T05:40:21.484Z,100598.81
2023-05-10T05:44:33.103Z,100605.63
2023-05-10T05:48:44.691Z,100597.91
2023-05-10T05:52:56.288Z,100597.38
2023-05-10T05:57:08.503Z,100609.94
2023-05-10T06:01:20.189Z,100597.81
2023-05-10T06:05:31.796Z,100602.66
2023-05-10T06:09:43.327Z,100602.00
2023-05-10T06:13:54.922Z,100606.84
2023-05-10T06:18:07.000Z,100613.34
2023-05-10T06:22:18.762Z,100614.41
2023-05-10T06:26:30.476Z,100625.75
2023-05-10T06:30:42.032Z,100629.16
2023-05-10T06:34:53.689Z,100629.41
2023-05-10T06:39:05.444Z,100628.53
2023-05-10T06:43:17.337Z,100625.28
2023-05-10T06:47:28.974Z,100641.25
2023-05-10T06:51:41.245Z,100641.59
2023-05-10T06:55:58.996Z,100636.00
2023-05-10T07:00:11.292Z,100646.63
2023-05-10T07:04:22.970Z,100655.84
2023-05-10T07:08:35.454Z,100652.97
2023-05-10T07:12:47.157Z,100652.81
2023-05-10T07:16:58.965Z,100661.00
2023-05-10T07:21:10.735Z,100659.09
2023-05-10T07:25:22.451Z,100665.13
2023-05-10T07:29:34.102Z,100666.63
2023-05-10T07:33:45.693Z,100663.75
2023-05-10T07:37:57.474Z,100670.78
2023-05-10T07:42:09.378Z,100669.16
2023-05-10T07:46:21.277Z,100681.41
2023-05-10T07:50:33.161Z,100679.81
2023-05-10T07:54:45.646Z,100690.69
2023-05-10T07:58:57.538Z,100696.75
2023-05-10T08:03:09.447Z,100698.41
2023-05-10T08:07:21.151Z,100705.78
2023-05-10T08:11:34.303Z,100711.38
2023-05-10T08:15:47.287Z,100705.06
2023-05-10T08:19:58.976Z,100715.84
2023-05-10T08:24:10.656Z,100706.34
2023-05-10T08:28:22.229Z,100715.78
2023-05-10T08:32:33.889Z,100711.91
2023-05-10T08:36:45.566Z,100715.56
2023-05-10T08:40:58.042Z,100729.59
2023-05-10T08:45:11.412Z,100733.06
2023-05-10T08:49:25.022Z,100740.53
2023-05-10T08:53:40.366Z,100747.75
2023-05-10T08:57:52.264Z,100755.22
2023-05-10T09:02:05.804Z,100765.97
2023-05-10T09:06:17.974Z,100762.22
2023-05-10T09:10:31.230Z,100781.31
2023-05-10T09:14:45.362Z,100762.34
2023-05-10T09:18:57.233Z,100770.03
2023-05-10T09:23:09.315Z,100777.69
2023-05-10T09:27:27.961Z,100781.75
2023-05-10T09:31:47.802Z,100791.81
2023-05-10T09:36:08.353Z,100796.72
2023-05-10T09:40:22.006Z,100804.47
2023-05-10T09:44:35.183Z,100815.56
2023-05-10T09:48:48.156Z,100813.66
2023-05-10T09:53:02.021Z,100813.13
2023-05-10T09:57:22.843Z,100820.75
2023-05-10T10:01:35.934Z,100828.56
2023-05-10T10:05:49.456Z,100818.22
2023-05-10T10:10:01.563Z,100829.38
2023-05-10T10:14:13.665Z,100813.31
2023-05-10T10:18:28.228Z,100822.06
2023-05-10T10:22:40.027Z,100822.63
2023-05-10T10:26:56.783Z,100833.22
2023-05-10T10:31:33.472Z,100837.59
2023-05-10T10:35:46.889Z,100826.56
2023-05-10T10:39:58.539Z,100837.78
2023-05-10T10:44:31.878Z,100844.31
2023-05-10T10:49:08.970Z,100834.81
2023-05-10T10:53:21.230Z,100839.66
2023-05-10T10:58:01.051Z,100829.59
2023-05-10T11:02:46.786Z,100837.78
2023-05-10T11:07:18.229Z,100829.63
2023-05-10T11:11:29.889Z,100832.34
2023-05-10T11:15:52.845Z,100824.97
2023-05-10T11:20:10.610Z,100842.38
2023-05-10T11:24:23.921Z,100821.63
2023-05-10T11:28:35.713Z,100825.97
2023-05-10T11:32:47.582Z,100837.97
2023-05-10T11:36:59.454Z,100836.59
2023-05-10T11:41:14.072Z,100837.34
2023-05-10T11:45:27.045Z,100852.47
2023-05-10T11:49:38.645Z,100851.00
2023-05-10T11:53:52.302Z,100830.56
2023-05-10T11:58:03.974Z,100840.72
2023-05-10T12:02:16.099Z,100843.41
2023-05-10T12:06:33.226Z,100830.84
2023-05-10T12:10:44.981Z,100845.03
2023-05-10T12:14:56.641Z,100841.63
2023-05-10T12:19:08.559Z,100854.06
2023-05-10T12:23:20.906Z,100847.09
2023-05-10T12:27:33.381Z,100843.97
2023-05-10T12:31:58.716Z,100857.88
2023-05-10T12:36:16.161Z,100864.31
2023-05-10T12:40:27.758Z,100847.69
2023-05-10T12:44:40.208Z,100855.28
2023-05-10T12:49:07.501Z,100860.75
2023-05-10T12:53:20.825Z,100850.84
2023-05-10T12:57:32.426Z,100863.78
2023-05-10T13:01:44.066Z,100860.59
2023-05-10T13:05:55.840Z,100866.06
2023-05-10T13:10:07.906Z,100868.41
2023-05-10T13:14:21.344Z,100871.31
2023-05-10T13:18:32.951Z,100875.22
2023-05-10T13:22:45.537Z,100875.44
2023-05-10T13:26:57.147Z,100866.16
2023-05-10T13:31:09.198Z,100871.09
2023-05-10T13:35:21.072Z,100867.47
2023-05-10T13:39:35.384Z,100868.19
2023-05-10T13:43:47.112Z,100867.13
2023-05-10T13:47:58.921Z,100873.50
2023-05-10T13:52:11.127Z,100887.81
2023-05-10T13:56:22.829Z,100886.03
2023-05-10T14:00:34.734Z,100900.81
2023-05-10T14:04:46.977Z,100884.59
2023-05-10T14:08:58.675Z,100896.56
2023-05-10T14:13:10.380Z,100878.31
2023-05-10T14:17:23.273Z,100882.97
2023-05-10T14:21:35.117Z,100865.28
2023-05-10T14:25:46.845Z,100888.69
2023-05-10T14:29:58.544Z,100898.19
2023-05-10T14:34:10.339Z,100885.66
2023-05-10T14:38:22.002Z,100905.22
2023-05-10T14:42:33.697Z,100873.91
2023-05-10T14:47:12.131Z,100904.97
2023-05-10T14:51:24.054Z,100905.50
2023-05-10T14:55:36.133Z,100906.28
2023-05-10T14:59:47.744Z,100899.75
2023-05-10T15:04:02.000Z,100906.59
2023-05-10T15:08:14.165Z,100904.41
2023-05-10T15:12:26.759Z,100915.31
2023-05-10T15:16:38.515Z,100905.81
2023-05-10T15:20:50.275Z,100906.34
2023-05-10T15:25:02.529Z,100907.41
2023-05-10T15:29:20.587Z,100910.69
2023-05-10T15:33:32.200Z,100921.56
2023-05-10T15:37:43.852Z,100919.16
2023-05-10T15:41:55.455Z,100934.63
2023-05-10T15:46:07.295Z,100927.56
2023-05-10T15:50:19.247Z,100931.63
2023-05-10T15:54:30.853Z,100929.44
2023-05-10T15:58:43.961Z,100938.44
2023-05-10T16:02:55.624Z,100934.63
2023-05-10T16:07:07.262Z,100934.09
2023-05-10T16:11:18.888Z,100932.44
2023-05-10T16:15:30.538Z,100944.97
2023-05-10T16:19:42.095Z,100932.75
2023-05-10T16:23:53.945Z,100932.47
2023-05-10T16:28:07.848Z,100933.31
2023-05-10T16:32:19.571Z,100932.50
2023-05-10T16:36:31.661Z,100942.28
2023-05-10T16:40:43.486Z,100944.47
2023-05-10T16:44:55.309Z,100933.03
2023-05-10T16:49:07.088Z,100943.66
2023-05-10T16:53:18.901Z,100939.56
2023-05-10T16:57:31.122Z,100961.88
2023-05-10T17:01:42.948Z,100963.53
2023-05-10T17:05:54.688Z,100968.16
2023-05-10T17:10:06.940Z,100979.06
2023-05-10T17:14:18.592Z,100976.84
2023-05-10T17:18:30.502Z,100981.75
2023-05-10T17:22:42.137Z,100982.53
2023-05-10T17:26:53.793Z,100982.53
2023-05-10T17:31:05.403Z,100986.31
2023-05-10T17:35:17.420Z,100975.38
2023-05-10T17:39:29.247Z,100995.50
2023-05-10T17:43:40.872Z,100992.50
2023-05-10T17:47:52.491Z,101000.09
2023-05-10T17:52:04.316Z,100992.47
2023-05-10T17:56:16.097Z,100992.72
2023-05-10T18:00:27.897Z,100993.97
2023-05-10T18:04:40.837Z,100993.88
2023-05-10T18:08:52.551Z,100990.78
2023-05-10T18:13:07.360Z,101000.00
2023-05-10T18:17:20.369Z,101005.91
2023-05-10T18:21:32.756Z,101012.16
2023-05-10T18:25:44.375Z,101010.00
2023-05-10T18:29:55.992Z,101008.00
2023-05-10T18:34:07.740Z,100997.88
2023-05-10T18:38:19.555Z,101005.13
2023-05-10T18:42:31.149Z,101007.56
2023-05-10T18:46:42.972Z,101006.19
2023-05-10T18:50:54.659Z,101011.25
2023-05-10T18:55:07.114Z,101021.03
2023-05-10T18:59:18.818Z,101021.81
2023-05-10T19:03:30.583Z,101020.97
2023-05-10T19:07:43.894Z,101011.19
2023-05-10T19:11:55.982Z,101017.69
2023-05-10T19:16:13.001Z,101027.16
2023-05-10T19:20:25.123Z,101021.91
2023-05-10T19:24:37.057Z,101030.81
2023-05-10T19:28:51.462Z,101035.66
2023-05-10T19:33:04.862Z,101022.81
2023-05-10T19:37:16.596Z,101039.66
2023-05-10T19:41:28.614Z,101046.09
2023-05-10T19:45:40.371Z,101052.47
2023-05-10T19:49:52.072Z,101041.19
2023-05-10T19:54:03.888Z,101054.66
2023-05-10T19:58:15.570Z,101059.09
2023-05-10T20:02:27.253Z,101055.13
2023-05-10T20:06:39.026Z,101074.50
2023-05-10T20:10:50.768Z,101058.59
2023-05-10T20:15:03.692Z,101074.28
2023-05-10T20:19:15.784Z,101063.44
2023-05-10T20:23:27.666Z,101068.28
2023-05-10T20:27:39.479Z,101069.44
2023-05-10T20:31:51.203Z,101072.47
2023-05-10T20:36:02.893Z,101070.81
2023-05-10T20:40:14.535Z,101078.84
2023-05-10T20:44:26.634Z,101082.72
2023-05-10T20:48:38.261Z,101073.69
2023-05-10T20:52:52.722Z,101072.13
2023-05-10T20:57:04.349Z,101064.75
2023-05-10T21:01:16.079Z,101070.97
2023-05-10T21:05:28.060Z,101068.34
2023-05-10T21:09:39.741Z,101068.34
2023-05-10T21:13:51.597Z,101080.59
2023-05-10T21:18:03.463Z,101075.91
2023-05-10T21:22:15.279Z,101068.59
2023-05-10T21:26:26.957Z,101075.66
2023-05-10T21:30:38.624Z,101078.13
2023-05-10T21:34:50.278Z,101067.53
2023-05-10T21:39:01.886Z,101077.63
2023-05-10T21:43:13.610Z,101068.94
2023-05-10T21:47:25.240Z,101070.81
2023-05-10T21:51:36.947Z,101065.91
2023-05-10T21:55:48.551Z,101073.19
2023-05-10T22:00:00.157Z,101084.59
2023-05-10T22:04:11.792Z,101086.25
2023-05-10T22:08:23.491Z,101075.09
2023-05-10T22:12:35.284Z,101078.03
2023-05-10T22:16:46.902Z,101077.22
2023-05-10T22:20:58.510Z,101082.63
2023-05-10T22:25:10.438Z,101094.53
2023-05-10T22:29:22.768Z,101077.75
2023-05-10T22:33:34.432Z,101081.50
2023-05-10T22:37:46.414Z,101068.13
2023-05-10T22:41:58.057Z,101085.75
2023-05-10T22:46:09.734Z,101085.75
2023-05-10T22:50:21.627Z,101083.31
2023-05-10T22:54:34.880Z,101083.44
2023-05-10T22:58:48.463Z,101091.56
2023-05-10T23:03:00.673Z,101089.69
2023-05-10T23:07:12.291Z,101094.03
2023-05-10T23:11:23.918Z,101094.03
2023-05-10T23:15:36.309Z,101092.56
2023-05-10T23:19:47.954Z,101094.13
2023-05-10T23:23:59.660Z,101092.47
2023-05-10T23:28:11.411Z,101093.22
2023-05-10T23:32:23.404Z,101102.88
2023-05-10T23:36:35.081Z,101106.66
2023-05-10T23:40:50.611Z,101113.97
2023-05-10T23:45:02.890Z,101100.91
2023-05-10T23:49:14.578Z,101095.50
2023-05-10T23:53:26.445Z,101104.44
2023-05-10T23:57:38.093Z,101101.16
